TimeMDT,TemperatureF,Dew PointF,Humidity,Sea Level PressureIn,VisibilityMPH,Wind Direction,Wind SpeedMPH,Gust SpeedMPH,PrecipitationIn,Events,Conditions,WindDirDegrees,DateUTC
12:58 AM,62.4,12.9,14,29.82,10.0,Calm,Calm,-,N/A,,Partly Cloudy,0,2013-05-09 06:58:00
1:58 AM,59.7,12.2,15,29.82,10.0,NNE,5.8,-,N/A,,Clear,30,2013-05-09 07:58:00
2:58 AM,61.3,12.9,15,29.80,10.0,Variable,1.2,-,N/A,,Clear,0,2013-05-09 08:58:00
3:58 AM,57.6,13.5,18,29.81,10.0,SW,4.6,-,N/A,,Clear,230,2013-05-09 09:58:00
4:58 AM,57.7,14.7,18,29.81,10.0,Calm,Calm,-,N/A,,Clear,0,2013-05-09 10:58:00
5:58 AM,52.5,12.7,21,29.84,10.0,ENE,9.2,-,N/A,,Clear,70,2013-05-09 11:58:00
6:58 AM,53.8,12.6,19,29.86,10.0,SE,4.6,-,N/A,,Clear,130,2013-05-09 12:58:00
7:58 AM,60.8,16.0,17,29.85,10.0,SE,5.8,-,N/A,,Clear,140,2013-05-09 13:58:00
8:58 AM,64.2,17.4,16,29.87,10.0,SSE,5.8,-,N/A,,Partly Cloudy,160,2013-05-09 14:58:00
9:51 AM,69.8,19.4,15,30.04,10.0,Variable,2.3,-,N/A,,Mostly Cloudy,0,2013-05-09 15:51:00
9:58 AM,70.0,19.0,14,29.87,10.0,WNW,5.8,-,N/A,,Scattered Clouds,290,2013-05-09 15:58:00
10:58 AM,73.6,19.6,13,29.86,10.0,West,5.8,-,N/A,,Clear,280,2013-05-09 16:58:00
11:58 AM,74.8,21.9,14,29.84,10.0,West,10.4,-,N/A,,Clear,280,2013-05-09 17:58:00
12:58 PM,75.2,21.6,13,29.83,10.0,NNW,6.9,-,N/A,,Clear,330,2013-05-09 18:58:00
1:58 PM,77.4,21.0,12,29.82,10.0,ESE,9.2,19.6,N/A,,Partly Cloudy,120,2013-05-09 19:58:00
2:58 PM,78.8,21.4,12,29.79,10.0,Variable,3.5,17.3,N/A,,Clear,0,2013-05-09 20:58:00
3:58 PM,78.6,20.8,12,29.76,10.0,WNW,9.2,-,N/A,,Partly Cloudy,300,2013-05-09 21:58:00
4:58 PM,79.2,21.9,12,29.76,10.0,WNW,9.2,-,N/A,,Clear,290,2013-05-09 22:58:00
6:55 PM,77.0,21.2,12,29.93,10.0,WNW,9.2,-,N/A,,Scattered Clouds,290,2013-05-10 00:55:00
7:58 PM,73.2,21.7,14,29.78,10.0,West,9.2,-,N/A,,Partly Cloudy,280,2013-05-10 01:58:00
8:58 PM,68.9,24.6,19,29.82,10.0,WNW,6.9,-,N/A,,Clear,290,2013-05-10 02:58:00
9:58 PM,66.0,24.3,21,29.83,10.0,NNE,5.8,-,N/A,,Clear,30,2013-05-10 03:58:00
10:58 PM,62.8,22.1,21,29.83,10.0,North,8.1,-,N/A,,Partly Cloudy,10,2013-05-10 04:58:00
11:58 PM,61.9,21.9,22,29.83,10.0,North,9.2,-,N/A,,Clear,360,2013-05-10 05:58:00